createdAt,value
2023-02-20T00:01:56.488Z,4.82
2023-02-20T00:05:00.405Z,4.80
2023-02-20T00:08:04.923Z,4.70
2023-02-20T00:11:09.329Z,4.20
2023-02-20T00:14:13.738Z,4.20
2023-02-20T00:17:17.753Z,4.40
2023-02-20T00:20:25.661Z,4.25
2023-02-20T00:23:32.865Z,4.15
2023-02-20T00:26:36.842Z,4.70
2023-02-20T00:29:40.927Z,4.30
2023-02-20T00:32:47.445Z,4.40
2023-02-20T00:35:51.346Z,4.35
2023-02-20T00:38:55.136Z,4.65
2023-02-20T00:41:59.253Z,4.60
2023-02-20T00:45:04.356Z,4.70
2023-02-20T00:48:08.507Z,4.90
2023-02-20T00:51:12.565Z,5.10
2023-02-20T00:54:16.731Z,4.90
2023-02-20T00:57:20.727Z,4.65
2023-02-20T01:00:29.587Z,5.20
2023-02-20T01:03:33.596Z,4.78
2023-02-20T01:06:37.609Z,4.53
2023-02-20T01:09:42.005Z,4.63
2023-02-20T01:12:46.056Z,4.53
2023-02-20T01:15:50.314Z,5.25
2023-02-20T01:18:54.482Z,4.90
2023-02-20T01:22:00.370Z,4.68
2023-02-20T01:25:04.692Z,4.45
2023-02-20T01:28:08.659Z,4.50
2023-02-20T01:31:12.820Z,3.90
2023-02-20T01:34:18.140Z,4.28
2023-02-20T01:37:22.254Z,3.80
2023-02-20T01:40:27.788Z,3.95
2023-02-20T01:43:31.869Z,4.10
2023-02-20T01:46:44.686Z,3.83
2023-02-20T01:50:03.870Z,3.90
2023-02-20T01:53:15.729Z,4.15
2023-02-20T01:56:19.968Z,4.05
2023-02-20T01:59:25.702Z,4.25
2023-02-20T02:02:33.745Z,4.13
2023-02-20T02:05:42.406Z,3.80
2023-02-20T02:08:46.702Z,4.20
2023-02-20T02:11:50.907Z,4.00
2023-02-20T02:14:55.098Z,3.95
2023-02-20T02:18:16.352Z,3.70
2023-02-20T02:21:42.197Z,3.90
2023-02-20T02:25:04.776Z,4.13
2023-02-20T02:28:39.854Z,3.78
2023-02-20T02:32:15.462Z,3.53
2023-02-20T02:35:54.253Z,4.07
2023-02-20T02:39:11.471Z,3.97
2023-02-20T02:42:32.362Z,4.00
2023-02-20T02:45:54.700Z,3.75
2023-02-20T02:49:06.485Z,4.13
2023-02-20T02:52:12.377Z,4.07
2023-02-20T02:55:28.912Z,4.20
2023-02-20T02:58:32.911Z,4.05
2023-02-20T03:01:46.440Z,4.18
2023-02-20T03:04:52.759Z,4.03
2023-02-20T03:07:58.703Z,4.20
2023-02-20T03:11:13.957Z,4.00
2023-02-20T03:15:04.022Z,4.82
2023-02-20T03:18:24.893Z,4.60
2023-02-20T03:21:31.947Z,4.78
2023-02-20T03:24:55.188Z,4.75
2023-02-20T03:28:01.961Z,5.00
2023-02-20T03:31:13.696Z,5.05
2023-02-20T03:34:45.080Z,5.50
2023-02-20T03:38:09.434Z,5.57
2023-02-20T03:41:34.735Z,5.75
2023-02-20T03:44:38.963Z,6.65
2023-02-20T03:47:45.565Z,6.57
2023-02-20T03:50:49.587Z,6.75
2023-02-20T03:53:54.670Z,7.07
2023-02-20T03:57:06.868Z,7.13
2023-02-20T04:00:20.175Z,7.90
2023-02-20T04:03:28.599Z,7.55
2023-02-20T04:06:34.698Z,8.18
2023-02-20T04:09:42.471Z,7.70
2023-02-20T04:12:49.155Z,8.73
2023-02-20T04:15:54.276Z,8.60
2023-02-20T04:18:58.188Z,8.73
2023-02-20T04:22:06.568Z,8.48
2023-02-20T04:25:34.320Z,8.23
2023-02-20T04:28:38.329Z,8.45
2023-02-20T04:31:42.587Z,8.40
2023-02-20T04:34:47.029Z,8.02
2023-02-20T04:37:51.248Z,8.40
2023-02-20T04:40:55.958Z,7.60
2023-02-20T04:44:18.398Z,7.78
2023-02-20T04:47:22.801Z,7.18
2023-02-20T04:50:30.897Z,6.97
2023-02-20T04:53:34.838Z,6.57
2023-02-20T04:56:39.044Z,6.70
2023-02-20T04:59:43.371Z,6.25
2023-02-20T05:02:47.826Z,6.60
2023-02-20T05:05:51.707Z,6.18
2023-02-20T05:08:55.838Z,6.63
2023-02-20T05:12:00.105Z,5.90
2023-02-20T05:15:04.261Z,5.97
2023-02-20T05:18:08.599Z,6.45
2023-02-20T05:21:34.387Z,7.03
2023-02-20T05:24:38.566Z,6.05
2023-02-20T05:27:42.824Z,6.60
2023-02-20T05:30:47.116Z,5.93
2023-02-20T05:33:51.717Z,7.47
2023-02-20T05:36:57.290Z,7.50
2023-02-20T05:40:01.505Z,6.53
2023-02-20T05:43:05.433Z,6.43
2023-02-20T05:46:09.499Z,6.53
2023-02-20T05:49:13.725Z,6.03
2023-02-20T05:52:18.078Z,5.93
2023-02-20T05:55:22.095Z,5.40
2023-02-20T05:58:26.629Z,5.85
2023-02-20T06:01:31.585Z,5.60
2023-02-20T06:04:35.751Z,4.88
2023-02-20T06:07:40.128Z,5.07
2023-02-20T06:10:43.961Z,5.40
2023-02-20T06:13:47.725Z,4.97
2023-02-20T06:16:51.949Z,4.82
2023-02-20T06:19:56.462Z,5.00
2023-02-20T06:23:00.832Z,4.90
2023-02-20T06:26:06.422Z,4.72
2023-02-20T06:29:10.537Z,4.80
2023-02-20T06:32:14.614Z,4.95
2023-02-20T06:35:19.038Z,5.55
2023-02-20T06:38:23.753Z,4.85
2023-02-20T06:41:27.826Z,5.00
2023-02-20T06:44:33.219Z,5.43
2023-02-20T06:47:37.279Z,5.60
2023-02-20T06:50:42.064Z,5.80
2023-02-20T06:53:46.857Z,5.78
2023-02-20T06:56:52.549Z,5.68
2023-02-20T06:59:56.345Z,5.63
2023-02-20T07:03:00.522Z,5.80
2023-02-20T07:06:04.827Z,5.85
2023-02-20T07:09:08.983Z,6.60
2023-02-20T07:12:13.463Z,6.43
2023-02-20T07:15:19.680Z,6.03
2023-02-20T07:18:23.992Z,6.72
2023-02-20T07:21:28.255Z,6.85
2023-02-20T07:24:32.909Z,6.55
2023-02-20T07:27:37.551Z,6.80
2023-02-20T07:30:41.485Z,6.75
2023-02-20T07:33:45.912Z,7.05
2023-02-20T07:36:50.064Z,6.90
2023-02-20T07:39:54.316Z,7.57
2023-02-20T07:42:58.670Z,7.18
2023-02-20T07:46:02.839Z,6.70
2023-02-20T07:49:06.988Z,6.32
2023-02-20T07:52:11.267Z,5.82
2023-02-20T07:55:16.758Z,5.95
2023-02-20T07:58:21.005Z,6.32
2023-02-20T08:01:25.214Z,5.57
2023-02-20T08:04:29.568Z,5.53
2023-02-20T08:07:33.418Z,6.20
2023-02-20T08:10:37.928Z,5.97
2023-02-20T08:13:44.550Z,5.78
2023-02-20T08:16:48.585Z,5.68
2023-02-20T08:19:52.787Z,5.43
2023-02-20T08:22:57.019Z,5.20
2023-02-20T08:26:04.328Z,5.03
2023-02-20T08:29:08.350Z,5.28
2023-02-20T08:32:14.973Z,4.45
2023-02-20T08:35:20.999Z,5.15
2023-02-20T08:38:32.187Z,4.40
2023-02-20T08:41:45.730Z,4.60
2023-02-20T08:44:49.479Z,4.65
2023-02-20T08:48:01.688Z,4.72
2023-02-20T08:51:06.901Z,4.00
2023-02-20T08:54:10.999Z,4.00
2023-02-20T08:57:16.337Z,4.15
2023-02-20T09:00:20.674Z,4.38
2023-02-20T09:03:25.876Z,4.07
2023-02-20T09:06:30.110Z,3.85
2023-02-20T09:09:34.253Z,3.75
2023-02-20T09:12:42.048Z,3.55
2023-02-20T09:15:46.391Z,3.40
2023-02-20T09:18:51.202Z,3.70
2023-02-20T09:21:55.392Z,3.30
2023-02-20T09:25:00.138Z,3.22
2023-02-20T09:28:04.680Z,2.97
2023-02-20T09:31:08.623Z,3.00
2023-02-20T09:34:12.868Z,3.20
2023-02-20T09:37:17.050Z,2.63
2023-02-20T09:40:24.076Z,2.70
2023-02-20T09:43:46.835Z,2.90
2023-02-20T09:46:53.177Z,2.50
2023-02-20T09:50:01.269Z,2.28
2023-02-20T09:53:27.150Z,2.50
2023-02-20T09:56:49.178Z,2.60
2023-02-20T10:00:14.581Z,2.42
2023-02-20T10:04:03.233Z,2.00
2023-02-20T10:07:26.588Z,2.03
2023-02-20T10:10:41.414Z,2.00
2023-02-20T10:13:58.112Z,1.88
2023-02-20T10:17:20.385Z,2.15
2023-02-20T10:20:42.215Z,2.25
2023-02-20T10:24:04.643Z,2.10
2023-02-20T10:27:22.928Z,1.73
2023-02-20T10:30:53.190Z,2.05
2023-02-20T10:34:05.378Z,2.22
2023-02-20T10:37:16.862Z,1.80
2023-02-20T10:40:28.618Z,1.90
2023-02-20T10:43:44.020Z,2.00
2023-02-20T10:47:06.259Z,1.77
2023-02-20T10:50:16.543Z,1.88
2023-02-20T10:53:44.502Z,1.73
2023-02-20T10:57:01.150Z,1.80
2023-02-20T11:00:11.266Z,1.90
2023-02-20T11:03:20.156Z,1.95
2023-02-20T11:06:31.361Z,1.98
2023-02-20T11:09:35.615Z,1.80
2023-02-20T11:12:57.098Z,1.88
2023-02-20T11:16:02.050Z,1.60
2023-02-20T11:19:16.950Z,1.70
2023-02-20T11:22:42.779Z,1.70
2023-02-20T11:25:46.770Z,1.55
2023-02-20T11:29:11.554Z,1.55
2023-02-20T11:32:24.751Z,1.60
2023-02-20T11:35:33.367Z,1.93
2023-02-20T11:38:38.533Z,1.60
2023-02-20T11:41:42.725Z,1.60
2023-02-20T11:45:12.000Z,1.50
2023-02-20T11:48:19.286Z,1.60
2023-02-20T11:51:36.065Z,1.60
2023-02-20T11:54:40.286Z,1.85
2023-02-20T11:57:47.986Z,1.48
2023-02-20T12:00:54.100Z,1.60
2023-02-20T12:04:00.163Z,1.48
2023-02-20T12:07:19.345Z,1.30
2023-02-20T12:10:31.225Z,1.40
2023-02-20T12:13:39.757Z,1.40
2023-02-20T12:16:49.700Z,1.30
2023-02-20T12:19:57.023Z,1.50
2023-02-20T12:23:12.668Z,1.55
2023-02-20T12:26:34.350Z,1.30
2023-02-20T12:29:46.196Z,1.60
2023-02-20T12:33:38.359Z,1.17
2023-02-20T12:36:51.974Z,1.50
2023-02-20T12:40:25.406Z,1.27
2023-02-20T12:44:02.207Z,1.40
2023-02-20T12:47:30.008Z,1.20
2023-02-20T12:50:48.802Z,1.10
2023-02-20T12:53:56.065Z,1.17
2023-02-20T12:57:15.592Z,1.20
2023-02-20T13:00:39.681Z,1.25
2023-02-20T13:04:11.619Z,1.20
2023-02-20T13:07:25.573Z,1.50
2023-02-20T13:10:35.044Z,1.55
2023-02-20T13:14:13.256Z,1.30
2023-02-20T13:17:42.027Z,1.27
2023-02-20T13:20:49.622Z,1.10
2023-02-20T13:24:32.952Z,1.63
2023-02-20T13:27:36.946Z,1.30
2023-02-20T13:30:41.323Z,1.40
2023-02-20T13:34:11.658Z,5.32
2023-02-20T13:37:34.074Z,1.38
2023-02-20T13:40:59.978Z,1.70
2023-02-20T13:44:34.046Z,1.30
2023-02-20T13:50:42.771Z,1.58
2023-02-20T13:53:54.655Z,1.20
2023-02-20T13:57:04.813Z,1.58
2023-02-20T14:00:47.192Z,1.60
2023-02-20T14:04:02.115Z,1.40
2023-02-20T14:07:06.389Z,1.83
2023-02-20T14:10:13.353Z,1.35
2023-02-20T14:13:39.029Z,1.88
2023-02-20T14:16:44.454Z,1.50
2023-02-20T14:20:05.324Z,1.80
2023-02-20T14:23:25.282Z,1.77
2023-02-20T14:26:34.431Z,1.60
2023-02-20T14:29:38.827Z,1.70
2023-02-20T14:32:51.221Z,1.40
2023-02-20T14:36:06.922Z,1.70
2023-02-20T14:39:26.216Z,1.73
2023-02-20T14:42:30.771Z,1.35
2023-02-20T14:45:35.931Z,1.73
2023-02-20T14:48:40.899Z,1.40
2023-02-20T14:51:44.938Z,2.28
2023-02-20T14:55:04.892Z,1.50
2023-02-20T14:58:19.010Z,1.70
2023-02-20T15:01:39.259Z,1.77
2023-02-20T15:05:02.765Z,1.30
2023-02-20T15:08:19.332Z,1.58
2023-02-20T15:11:23.589Z,2.08
2023-02-20T15:14:29.418Z,1.50
2023-02-20T15:17:38.598Z,1.48
2023-02-20T15:20:50.772Z,1.60
2023-02-20T15:23:54.717Z,1.58
2023-02-20T15:27:17.959Z,1.60
2023-02-20T15:30:22.347Z,1.88
2023-02-20T15:33:26.606Z,1.70
2023-02-20T15:36:30.843Z,1.90
2023-02-20T15:39:40.736Z,1.90
2023-02-20T15:42:44.519Z,1.50
2023-02-20T15:45:48.663Z,1.80
2023-02-20T15:48:52.664Z,1.67
2023-02-20T15:52:04.749Z,1.50
2023-02-20T15:55:17.978Z,1.55
2023-02-20T15:58:36.253Z,1.52
2023-02-20T16:01:41.006Z,1.80
2023-02-20T16:04:49.838Z,1.52
2023-02-20T16:07:53.802Z,1.40
2023-02-20T16:10:57.950Z,1.60
2023-02-20T16:14:02.629Z,1.60
2023-02-20T16:17:11.274Z,1.58
2023-02-20T16:20:18.540Z,1.83
2023-02-20T16:23:22.923Z,1.52
2023-02-20T16:26:30.912Z,1.77
2023-02-20T16:29:36.560Z,1.55
2023-02-20T16:32:44.792Z,1.50
2023-02-20T16:35:53.028Z,1.70
2023-02-20T16:38:58.136Z,1.95
2023-02-20T16:42:06.961Z,1.80
2023-02-20T16:45:19.052Z,1.60
2023-02-20T16:48:22.982Z,1.77
2023-02-20T16:51:29.656Z,1.90
2023-02-20T16:54:33.656Z,1.73
2023-02-20T16:57:37.641Z,1.90
2023-02-20T17:00:55.120Z,1.70
2023-02-20T17:04:01.196Z,2.03
2023-02-20T17:07:08.869Z,2.00
2023-02-20T17:10:13.760Z,1.90
2023-02-20T17:13:17.873Z,2.17
2023-02-20T17:16:31.299Z,2.08
2023-02-20T17:19:41.686Z,2.20
2023-02-20T17:22:52.835Z,2.17
2023-02-20T17:25:59.905Z,2.10
2023-02-20T17:29:04.001Z,2.10
2023-02-20T17:32:08.448Z,1.90
2023-02-20T17:35:12.956Z,1.85
2023-02-20T17:38:17.179Z,1.80
2023-02-20T17:41:22.189Z,1.75
2023-02-20T17:44:28.976Z,2.15
2023-02-20T17:47:33.532Z,1.70
2023-02-20T17:50:37.915Z,2.20
2023-02-20T17:53:41.736Z,2.08
2023-02-20T17:56:46.535Z,2.38
2023-02-20T17:59:50.446Z,2.53
2023-02-20T18:02:54.480Z,2.70
2023-02-20T18:05:58.628Z,3.80
2023-02-20T18:09:03.090Z,2.70
2023-02-20T18:12:07.591Z,2.85
2023-02-20T18:15:11.744Z,3.10
2023-02-20T18:18:15.791Z,2.90
2023-02-20T18:21:25.487Z,3.15
2023-02-20T18:24:30.251Z,3.83
2023-02-20T18:27:34.161Z,3.05
2023-02-20T18:30:40.803Z,3.55
2023-02-20T18:33:45.232Z,3.67
2023-02-20T18:36:49.962Z,3.28
2023-02-20T18:39:54.008Z,3.75
2023-02-20T18:42:58.333Z,4.00
2023-02-20T18:46:02.569Z,4.05
2023-02-20T18:49:07.017Z,4.32
2023-02-20T18:52:11.225Z,4.10
2023-02-20T18:55:20.097Z,4.75
2023-02-20T18:58:27.584Z,4.22
2023-02-20T19:01:33.712Z,4.13
2023-02-20T19:04:37.987Z,4.63
2023-02-20T19:07:47.038Z,4.68
2023-02-20T19:10:51.023Z,5.30
2023-02-20T19:13:55.311Z,5.18
2023-02-20T19:17:01.709Z,5.30
2023-02-20T19:20:09.515Z,5.13
2023-02-20T19:23:13.653Z,5.18
2023-02-20T19:26:17.726Z,5.35
2023-02-20T19:29:21.861Z,5.30
2023-02-20T19:32:26.145Z,5.28
2023-02-20T19:35:30.615Z,5.30
2023-02-20T19:38:34.771Z,5.03
2023-02-20T19:41:39.433Z,6.28
2023-02-20T19:44:43.566Z,5.07
2023-02-20T19:47:47.776Z,5.30
2023-02-20T19:50:52.372Z,5.47
2023-02-20T19:53:57.048Z,5.38
2023-02-20T19:57:02.689Z,5.20
2023-02-20T20:00:06.688Z,5.20
2023-02-20T20:03:11.046Z,5.28
2023-02-20T20:06:18.149Z,5.05
2023-02-20T20:09:35.776Z,5.78
2023-02-20T20:12:46.942Z,5.80
2023-02-20T20:15:51.104Z,6.28
2023-02-20T20:18:55.511Z,5.78
2023-02-20T20:21:59.579Z,5.45
2023-02-20T20:25:04.538Z,6.15
2023-02-20T20:28:09.407Z,5.75
2023-02-20T20:31:13.888Z,5.82
2023-02-20T20:34:20.537Z,5.88
2023-02-20T20:37:30.111Z,5.68
2023-02-20T20:40:34.144Z,5.05
2023-02-20T20:43:38.330Z,4.90
2023-02-20T20:46:42.450Z,5.32
2023-02-20T20:49:46.804Z,5.03
2023-02-20T20:52:51.938Z,5.22
2023-02-20T20:55:55.850Z,4.70
2023-02-20T20:58:59.928Z,5.53
2023-02-20T21:02:03.912Z,5.40
2023-02-20T21:05:10.484Z,4.70
2023-02-20T21:08:15.422Z,4.60
2023-02-20T21:11:19.647Z,4.60
2023-02-20T21:14:23.753Z,4.70
2023-02-20T21:17:27.877Z,4.90
2023-02-20T21:20:34.036Z,4.57
2023-02-20T21:23:46.085Z,4.57
2023-02-20T21:26:49.958Z,4.68
2023-02-20T21:29:54.110Z,4.22
2023-02-20T21:32:59.188Z,4.00
2023-02-20T21:36:06.146Z,3.95
2023-02-20T21:39:10.223Z,3.58
2023-02-20T21:42:32.978Z,3.50
2023-02-20T21:45:37.186Z,3.20
2023-02-20T21:48:41.238Z,3.10
2023-02-20T21:51:45.809Z,3.10
2023-02-20T21:54:51.902Z,3.00
2023-02-20T21:57:56.724Z,2.90
2023-02-20T22:01:00.805Z,2.50
2023-02-20T22:04:07.007Z,2.47
2023-02-20T22:07:29.439Z,2.80
2023-02-20T22:10:52.199Z,2.80
2023-02-20T22:14:14.947Z,3.05
2023-02-20T22:17:37.573Z,3.10
2023-02-20T22:21:00.277Z,2.80
2023-02-20T22:24:33.753Z,2.80
2023-02-20T22:28:00.021Z,2.60
2023-02-20T22:31:24.194Z,2.22
2023-02-20T22:34:46.858Z,2.20
2023-02-20T22:38:09.846Z,2.70
2023-02-20T22:41:40.707Z,2.40
2023-02-20T22:45:03.375Z,2.38
2023-02-20T22:48:26.238Z,2.58
2023-02-20T22:51:48.886Z,2.30
2023-02-20T22:55:11.575Z,2.85
2023-02-20T22:58:34.275Z,2.47
2023-02-20T23:01:56.783Z,2.72
2023-02-20T23:05:19.249Z,2.78
2023-02-20T23:08:41.975Z,2.47
2023-02-20T23:12:04.475Z,2.63
2023-02-20T23:15:27.360Z,3.10
2023-02-20T23:18:49.930Z,3.10
2023-02-20T23:22:12.498Z,2.80
2023-02-20T23:25:35.498Z,3.08
2023-02-20T23:28:58.287Z,3.38
2023-02-20T23:32:22.959Z,3.42
2023-02-20T23:35:45.600Z,3.58
2023-02-20T23:39:10.326Z,3.67
2023-02-20T23:42:33.079Z,3.50
2023-02-20T23:45:55.604Z,3.47
2023-02-20T23:49:18.390Z,3.40
2023-02-20T23:52:41.214Z,3.70
2023-02-20T23:56:04.136Z,3.53
2023-02-20T23:59:26.935Z,3.67
